createdAt,value
2023-06-11T00:01:42.993Z,13.10
2023-06-11T00:04:10.387Z,12.80
2023-06-11T00:06:37.628Z,11.90
2023-06-11T00:09:05.032Z,13.15
2023-06-11T00:11:32.138Z,12.63
2023-06-11T00:13:59.233Z,12.30
2023-06-11T00:16:26.437Z,12.20
2023-06-11T00:18:53.560Z,10.77
2023-06-11T00:21:20.690Z,10.75
2023-06-11T00:23:47.954Z,10.43
2023-06-11T00:26:15.057Z,9.98
2023-06-11T00:28:42.177Z,10.80
2023-06-11T00:31:09.352Z,9.93
2023-06-11T00:33:36.547Z,9.60
2023-06-11T00:36:03.759Z,9.40
2023-06-11T00:38:31.232Z,8.95
2023-06-11T00:40:58.437Z,9.57
2023-06-11T00:43:25.548Z,8.82
2023-06-11T00:45:53.080Z,8.15
2023-06-11T00:48:23.271Z,9.05
2023-06-11T00:50:51.115Z,9.43
2023-06-11T00:53:19.302Z,9.20
2023-06-11T00:55:46.949Z,9.20
2023-06-11T00:58:14.713Z,8.18
2023-06-11T01:00:47.382Z,9.15
2023-06-11T01:03:19.100Z,8.80
2023-06-11T01:05:48.447Z,8.63
2023-06-11T01:08:18.008Z,8.93
2023-06-11T01:10:45.871Z,10.02
2023-06-11T01:13:13.064Z,9.68
2023-06-11T01:15:40.156Z,8.18
2023-06-11T01:18:12.051Z,8.18
2023-06-11T01:20:43.650Z,8.48
2023-06-11T01:23:17.605Z,7.90
2023-06-11T01:26:03.561Z,7.93
2023-06-11T01:28:32.188Z,7.90
2023-06-11T01:31:01.924Z,8.05
2023-06-11T01:33:29.596Z,8.00
2023-06-11T01:36:00.005Z,8.07
2023-06-11T01:38:31.707Z,7.60
2023-06-11T01:41:00.092Z,9.40
2023-06-11T01:43:29.461Z,8.10
2023-06-11T01:45:57.310Z,8.93
2023-06-11T01:48:24.475Z,9.00
2023-06-11T01:50:51.655Z,8.60
2023-06-11T01:53:18.886Z,9.38
2023-06-11T01:55:46.105Z,7.88
2023-06-11T01:58:13.541Z,9.35
2023-06-11T02:00:40.760Z,8.27
2023-06-11T02:03:09.687Z,8.05
2023-06-11T02:05:37.057Z,7.95
2023-06-11T02:08:04.344Z,8.85
2023-06-11T02:10:31.483Z,8.10
2023-06-11T02:12:58.597Z,6.88
2023-06-11T02:15:25.832Z,6.70
2023-06-11T02:17:53.017Z,6.70
2023-06-11T02:20:20.213Z,6.75
2023-06-11T02:22:47.357Z,6.78
2023-06-11T02:25:14.674Z,6.88
2023-06-11T02:27:41.917Z,6.50
2023-06-11T02:30:09.368Z,6.57
2023-06-11T02:32:36.581Z,6.78
2023-06-11T02:35:04.097Z,6.50
2023-06-11T02:37:31.243Z,6.15
2023-06-11T02:39:58.367Z,6.00
2023-06-11T02:42:25.603Z,6.25
2023-06-11T02:44:52.776Z,5.80
2023-06-11T02:47:19.973Z,5.30
2023-06-11T02:49:47.091Z,4.90
2023-06-11T02:52:14.303Z,5.72
2023-06-11T02:54:41.446Z,5.68
2023-06-11T02:57:08.569Z,5.18
2023-06-11T02:59:36.094Z,4.68
2023-06-11T03:02:03.199Z,5.40
2023-06-11T03:04:30.286Z,5.38
2023-06-11T03:06:57.483Z,4.57
2023-06-11T03:09:25.358Z,5.30
2023-06-11T03:11:52.980Z,5.20
2023-06-11T03:14:22.161Z,5.25
2023-06-11T03:16:49.304Z,5.28
2023-06-11T03:19:16.433Z,5.07
2023-06-11T03:21:43.661Z,4.47
2023-06-11T03:24:10.794Z,5.60
2023-06-11T03:26:37.981Z,5.25
2023-06-11T03:29:05.226Z,5.18
2023-06-11T03:31:32.418Z,4.72
2023-06-11T03:33:59.646Z,5.35
2023-06-11T03:36:26.851Z,5.00
2023-06-11T03:38:54.075Z,5.28
2023-06-11T03:41:21.241Z,4.95
2023-06-11T03:43:48.504Z,5.57
2023-06-11T03:46:15.684Z,4.95
2023-06-11T03:48:42.841Z,5.13
2023-06-11T03:51:10.346Z,4.85
2023-06-11T03:53:37.499Z,4.50
2023-06-11T03:56:04.646Z,4.85
2023-06-11T03:58:31.845Z,4.53
2023-06-11T04:00:59.310Z,4.82
2023-06-11T04:03:26.518Z,4.40
2023-06-11T04:05:53.780Z,4.70
2023-06-11T04:08:20.868Z,4.60
2023-06-11T04:10:48.136Z,5.00
2023-06-11T04:13:15.314Z,4.55
2023-06-11T04:15:42.405Z,4.68
2023-06-11T04:18:11.094Z,5.07
2023-06-11T04:20:38.367Z,4.55
2023-06-11T04:23:05.604Z,4.43
2023-06-11T04:25:32.885Z,4.40
2023-06-11T04:28:00.700Z,4.00
2023-06-11T04:30:28.183Z,4.20
2023-06-11T04:32:56.438Z,4.72
2023-06-11T04:35:27.421Z,4.10
2023-06-11T04:37:54.594Z,4.43
2023-06-11T04:40:22.286Z,4.15
2023-06-11T04:42:49.546Z,4.95
2023-06-11T04:45:20.008Z,4.18
2023-06-11T04:47:47.612Z,3.72
2023-06-11T04:50:22.257Z,3.70
2023-06-11T04:52:52.702Z,4.13
2023-06-11T04:55:22.698Z,3.70
2023-06-11T04:57:50.854Z,4.43
2023-06-11T05:00:18.434Z,4.00
2023-06-11T05:02:46.010Z,3.58
2023-06-11T05:05:14.294Z,3.22
2023-06-11T05:07:42.976Z,4.40
2023-06-11T05:10:10.454Z,3.92
2023-06-11T05:12:37.609Z,4.18
2023-06-11T05:15:04.912Z,3.45
2023-06-11T05:17:34.093Z,4.38
2023-06-11T05:20:01.585Z,3.92
2023-06-11T05:22:28.873Z,3.60
2023-06-11T05:24:56.097Z,3.80
2023-06-11T05:27:24.804Z,4.18
2023-06-11T05:29:52.559Z,4.25
2023-06-11T05:32:19.941Z,4.28
2023-06-11T05:34:50.988Z,4.20
2023-06-11T05:37:18.464Z,4.13
2023-06-11T05:39:47.375Z,3.85
2023-06-11T05:42:14.559Z,3.80
2023-06-11T05:44:42.117Z,4.00
2023-06-11T05:47:09.375Z,3.88
2023-06-11T05:49:36.843Z,4.03
2023-06-11T05:52:04.058Z,4.20
2023-06-11T05:54:31.229Z,3.80
2023-06-11T05:56:59.161Z,3.75
2023-06-11T05:59:26.336Z,3.47
2023-06-11T06:01:53.661Z,4.00
2023-06-11T06:04:21.141Z,3.58
2023-06-11T06:06:48.348Z,3.83
2023-06-11T06:09:15.648Z,3.20
2023-06-11T06:11:42.798Z,3.45
2023-06-11T06:14:09.936Z,3.47
2023-06-11T06:16:37.090Z,3.33
2023-06-11T06:19:04.278Z,3.42
2023-06-11T06:21:31.430Z,3.17
2023-06-11T06:23:58.611Z,3.22
2023-06-11T06:26:26.159Z,3.58
2023-06-11T06:28:54.406Z,2.83
2023-06-11T06:31:24.241Z,3.05
2023-06-11T06:33:51.757Z,3.20
2023-06-11T06:36:21.160Z,3.08
2023-06-11T06:38:49.059Z,2.75
2023-06-11T06:41:16.276Z,3.30
2023-06-11T06:43:43.442Z,2.53
2023-06-11T06:46:10.710Z,2.95
2023-06-11T06:48:37.893Z,2.85
2023-06-11T06:51:05.131Z,2.92
2023-06-11T06:53:32.326Z,2.70
2023-06-11T06:56:01.216Z,2.70
2023-06-11T06:58:28.866Z,2.45
2023-06-11T07:00:56.368Z,2.40
2023-06-11T07:03:24.132Z,2.17
2023-06-11T07:05:51.314Z,3.50
2023-06-11T07:08:18.634Z,2.80
2023-06-11T07:10:54.274Z,2.95
2023-06-11T07:13:22.335Z,2.97
2023-06-11T07:15:49.791Z,2.88
2023-06-11T07:18:17.225Z,2.58
2023-06-11T07:20:45.332Z,2.70
2023-06-11T07:23:12.461Z,3.03
2023-06-11T07:25:40.461Z,2.45
2023-06-11T07:28:07.713Z,2.50
2023-06-11T07:30:35.601Z,2.40
2023-06-11T07:33:03.110Z,2.75
2023-06-11T07:35:30.735Z,2.58
2023-06-11T07:37:57.863Z,2.80
2023-06-11T07:40:25.061Z,2.80
2023-06-11T07:42:52.308Z,2.55
2023-06-11T07:45:22.008Z,3.00
2023-06-11T07:47:50.509Z,2.90
2023-06-11T07:50:17.671Z,2.50
2023-06-11T07:52:44.771Z,2.50
2023-06-11T07:55:12.174Z,2.35
2023-06-11T07:57:39.341Z,2.50
2023-06-11T08:00:13.673Z,2.33
2023-06-11T08:02:42.058Z,2.28
2023-06-11T08:05:12.767Z,2.58
2023-06-11T08:07:40.213Z,3.25
2023-06-11T08:10:07.847Z,2.78
2023-06-11T08:12:35.095Z,2.30
2023-06-11T08:15:02.410Z,2.13
2023-06-11T08:17:29.651Z,2.70
2023-06-11T08:19:56.785Z,2.60
2023-06-11T08:22:23.877Z,2.70
2023-06-11T08:24:51.195Z,2.35
2023-06-11T08:27:18.318Z,2.40
2023-06-11T08:29:45.427Z,2.85
2023-06-11T08:32:12.733Z,2.72
2023-06-11T08:34:39.879Z,2.40
2023-06-11T08:37:07.322Z,2.58
2023-06-11T08:39:34.432Z,2.50
2023-06-11T08:42:01.647Z,2.17
2023-06-11T08:44:28.782Z,2.20
2023-06-11T08:46:57.444Z,2.85
2023-06-11T08:49:24.715Z,4.18
2023-06-11T08:51:52.108Z,2.30
2023-06-11T08:54:19.525Z,2.50
2023-06-11T08:56:46.717Z,2.75
2023-06-11T08:59:13.923Z,2.53
2023-06-11T09:01:41.697Z,2.40
2023-06-11T09:04:09.160Z,2.33
2023-06-11T09:06:37.343Z,2.13
2023-06-11T09:09:06.673Z,2.25
2023-06-11T09:11:34.651Z,2.58
2023-06-11T09:14:02.209Z,2.60
2023-06-11T09:16:29.647Z,2.60
2023-06-11T09:18:57.774Z,2.50
2023-06-11T09:21:26.154Z,2.20
2023-06-11T09:23:53.491Z,2.45
2023-06-11T09:26:20.763Z,2.50
2023-06-11T09:28:50.326Z,2.90
2023-06-11T09:31:20.221Z,2.20
2023-06-11T09:33:47.396Z,2.53
2023-06-11T09:36:17.449Z,2.38
2023-06-11T09:38:46.588Z,2.13
2023-06-11T09:41:13.841Z,2.55
2023-06-11T09:43:42.037Z,2.58
2023-06-11T09:46:09.507Z,2.38
2023-06-11T09:48:37.082Z,2.55
2023-06-11T09:51:04.605Z,2.45
2023-06-11T09:53:35.483Z,2.65
2023-06-11T09:56:11.202Z,2.05
2023-06-11T09:58:40.781Z,2.50
2023-06-11T10:01:08.700Z,2.33
2023-06-11T10:03:36.078Z,2.20
2023-06-11T10:06:06.554Z,2.53
2023-06-11T10:08:35.139Z,2.55
2023-06-11T10:11:05.829Z,2.25
2023-06-11T10:13:33.931Z,2.58
2023-06-11T10:16:01.691Z,2.50
2023-06-11T10:18:30.735Z,1.95
2023-06-11T10:21:02.394Z,2.38
2023-06-11T10:23:37.329Z,2.42
2023-06-11T10:26:04.750Z,2.17
2023-06-11T10:28:37.891Z,2.20
2023-06-11T10:31:05.487Z,2.13
2023-06-11T10:33:44.052Z,2.40
2023-06-11T10:36:11.394Z,2.47
2023-06-11T10:38:39.261Z,2.38
2023-06-11T10:41:06.667Z,2.13
2023-06-11T10:43:34.015Z,2.53
2023-06-11T10:46:13.570Z,2.47
2023-06-11T10:48:50.641Z,2.10
2023-06-11T10:51:17.886Z,2.47
2023-06-11T10:53:45.021Z,2.38
2023-06-11T10:56:14.845Z,2.60
2023-06-11T10:58:42.911Z,2.35
2023-06-11T11:01:10.210Z,2.60
2023-06-11T11:03:39.981Z,2.90
2023-06-11T11:06:07.275Z,2.45
2023-06-11T11:08:34.379Z,2.58
2023-06-11T11:11:01.682Z,2.65
2023-06-11T11:13:30.327Z,2.97
2023-06-11T11:15:59.500Z,2.55
2023-06-11T11:18:26.724Z,2.42
2023-06-11T11:20:55.163Z,2.78
2023-06-11T11:23:25.277Z,2.97
2023-06-11T11:25:52.651Z,3.83
2023-06-11T11:28:19.801Z,3.15
2023-06-11T11:30:47.009Z,2.40
2023-06-11T11:33:14.359Z,2.83
2023-06-11T11:35:51.177Z,3.25
2023-06-11T11:38:18.816Z,2.90
2023-06-11T11:40:45.985Z,3.17
2023-06-11T11:43:14.842Z,3.33
2023-06-11T11:45:47.250Z,2.90
2023-06-11T11:48:16.694Z,3.00
2023-06-11T11:50:46.367Z,3.35
2023-06-11T11:53:19.350Z,2.83
2023-06-11T11:56:04.566Z,3.13
2023-06-11T11:58:38.045Z,3.30
2023-06-11T12:01:05.792Z,2.80
2023-06-11T12:03:33.136Z,3.20
2023-06-11T12:06:00.599Z,2.75
2023-06-11T12:08:28.385Z,2.63
2023-06-11T12:10:55.790Z,2.85
2023-06-11T12:13:23.145Z,4.20
2023-06-11T12:15:50.255Z,3.50
2023-06-11T12:18:17.431Z,3.03
2023-06-11T12:20:44.595Z,3.10
2023-06-11T12:23:11.788Z,3.35
2023-06-11T12:25:38.925Z,3.10
2023-06-11T12:28:06.996Z,3.28
2023-06-11T12:30:36.038Z,3.15
2023-06-11T12:33:03.404Z,3.35
2023-06-11T12:35:31.551Z,2.72
2023-06-11T12:37:58.850Z,3.00
2023-06-11T12:40:26.206Z,3.10
2023-06-11T12:42:58.196Z,2.67
2023-06-11T12:45:27.251Z,3.03
2023-06-11T12:47:54.632Z,2.90
2023-06-11T12:50:25.083Z,2.83
2023-06-11T12:52:54.165Z,3.30
2023-06-11T12:55:21.723Z,2.83
2023-06-11T12:57:49.187Z,2.50
2023-06-11T13:00:16.956Z,3.03
2023-06-11T13:02:45.216Z,2.97
2023-06-11T13:05:12.742Z,2.50
2023-06-11T13:07:40.002Z,3.00
2023-06-11T13:10:07.310Z,2.70
2023-06-11T13:12:34.509Z,3.13
2023-06-11T13:15:01.684Z,2.95
2023-06-11T13:17:28.943Z,3.20
2023-06-11T13:19:56.595Z,3.58
2023-06-11T13:22:23.872Z,3.22
2023-06-11T13:24:51.193Z,2.70
2023-06-11T13:27:18.593Z,3.05
2023-06-11T13:29:46.610Z,2.65
2023-06-11T13:32:13.824Z,2.90
2023-06-11T13:34:41.049Z,3.00
2023-06-11T13:37:08.298Z,2.80
2023-06-11T13:39:35.472Z,2.90
2023-06-11T13:42:02.738Z,3.17
2023-06-11T13:44:29.923Z,3.30
2023-06-11T13:46:57.078Z,2.97
2023-06-11T13:49:26.571Z,2.72
2023-06-11T13:51:55.416Z,2.65
2023-06-11T13:54:23.845Z,3.30
2023-06-11T13:56:51.034Z,3.25
2023-06-11T13:59:20.617Z,2.63
2023-06-11T14:01:47.850Z,2.42
2023-06-11T14:04:15.088Z,2.60
2023-06-11T14:06:42.291Z,2.70
2023-06-11T14:09:09.404Z,3.00
2023-06-11T14:11:36.648Z,2.75
2023-06-11T14:14:03.848Z,3.28
2023-06-11T14:16:31.052Z,3.17
2023-06-11T14:18:58.340Z,2.80
2023-06-11T14:21:26.018Z,2.60
2023-06-11T14:23:53.226Z,3.65
2023-06-11T14:26:20.541Z,2.95
2023-06-11T14:28:47.626Z,2.70
2023-06-11T14:31:14.989Z,2.42
2023-06-11T14:33:42.173Z,2.72
2023-06-11T14:36:09.381Z,3.25
2023-06-11T14:38:36.498Z,2.75
2023-06-11T14:41:03.802Z,3.03
2023-06-11T14:43:30.939Z,2.80
2023-06-11T14:45:58.161Z,3.25
2023-06-11T14:48:25.327Z,2.83
2023-06-11T14:50:52.414Z,2.60
2023-06-11T14:53:19.531Z,2.63
2023-06-11T14:55:46.710Z,2.40
2023-06-11T14:58:13.853Z,2.60
2023-06-11T15:00:41.112Z,2.70
2023-06-11T15:03:12.035Z,2.83
2023-06-11T15:05:40.867Z,2.85
2023-06-11T15:08:08.076Z,2.53
2023-06-11T15:10:36.282Z,2.80
2023-06-11T15:13:05.091Z,2.40
2023-06-11T15:15:32.198Z,2.00
2023-06-11T15:17:59.483Z,3.72
2023-06-11T15:20:26.610Z,2.50
2023-06-11T15:22:53.725Z,2.50
2023-06-11T15:25:20.898Z,2.20
2023-06-11T15:27:51.132Z,2.67
2023-06-11T15:30:18.848Z,2.63
2023-06-11T15:32:46.157Z,2.42
2023-06-11T15:35:13.404Z,2.60
2023-06-11T15:37:40.624Z,2.65
2023-06-11T15:40:08.107Z,2.15
2023-06-11T15:42:36.424Z,2.25
2023-06-11T15:45:03.958Z,2.30
2023-06-11T15:47:31.444Z,1.95
2023-06-11T15:49:58.671Z,2.55
2023-06-11T15:52:25.886Z,2.58
2023-06-11T15:54:53.126Z,2.50
2023-06-11T15:57:20.532Z,2.78
2023-06-11T15:59:47.716Z,2.00
2023-06-11T16:02:14.907Z,2.55
2023-06-11T16:04:42.018Z,2.22
2023-06-11T16:07:09.197Z,2.53
2023-06-11T16:09:36.646Z,2.20
2023-06-11T16:12:04.090Z,2.53
2023-06-11T16:14:31.184Z,2.40
2023-06-11T16:16:59.208Z,2.78
2023-06-11T16:19:26.492Z,2.42
2023-06-11T16:21:53.761Z,2.10
2023-06-11T16:24:21.318Z,1.92
2023-06-11T16:26:48.458Z,2.42
2023-06-11T16:29:15.679Z,2.10
2023-06-11T16:31:43.919Z,2.45
2023-06-11T16:34:12.432Z,2.13
2023-06-11T16:36:40.142Z,2.67
2023-06-11T16:39:21.831Z,1.92
2023-06-11T16:41:52.449Z,2.42
2023-06-11T16:44:19.620Z,2.05
2023-06-11T16:46:47.716Z,2.55
2023-06-11T16:49:15.680Z,2.55
2023-06-11T16:51:42.901Z,2.13
2023-06-11T16:54:10.060Z,2.40
2023-06-11T16:56:37.224Z,2.60
2023-06-11T16:59:04.374Z,2.10
2023-06-11T17:01:31.529Z,2.33
2023-06-11T17:03:59.738Z,2.70
2023-06-11T17:06:29.820Z,2.20
2023-06-11T17:08:56.946Z,1.95
2023-06-11T17:11:24.122Z,2.20
2023-06-11T17:13:52.079Z,1.98
2023-06-11T17:16:19.223Z,2.20
2023-06-11T17:18:46.521Z,2.15
2023-06-11T17:21:13.766Z,2.20
2023-06-11T17:23:41.005Z,2.55
2023-06-11T17:26:08.128Z,2.58
2023-06-11T17:28:35.320Z,2.33
2023-06-11T17:31:02.453Z,2.70
2023-06-11T17:33:29.663Z,2.15
2023-06-11T17:35:56.954Z,2.08
2023-06-11T17:38:25.902Z,2.30
2023-06-11T17:40:53.012Z,2.47
2023-06-11T17:43:20.173Z,2.70
2023-06-11T17:45:49.752Z,3.20
2023-06-11T17:48:18.471Z,2.30
2023-06-11T17:50:45.626Z,2.30
2023-06-11T17:53:12.749Z,2.80
2023-06-11T17:55:39.970Z,2.50
2023-06-11T17:58:07.196Z,2.50
2023-06-11T18:00:34.355Z,2.50
2023-06-11T18:03:01.539Z,2.70
2023-06-11T18:05:29.445Z,2.42
2023-06-11T18:07:56.587Z,3.00
2023-06-11T18:10:23.795Z,2.80
2023-06-11T18:12:51.188Z,2.55
2023-06-11T18:15:32.101Z,3.30
2023-06-11T18:18:01.091Z,2.78
2023-06-11T18:20:29.904Z,2.28
2023-06-11T18:22:57.475Z,1.90
2023-06-11T18:25:26.396Z,2.50
2023-06-11T18:27:53.719Z,2.40
2023-06-11T18:30:22.409Z,2.35
2023-06-11T18:32:50.315Z,2.95
2023-06-11T18:35:18.957Z,2.72
2023-06-11T18:37:46.411Z,2.70
2023-06-11T18:40:13.950Z,2.53
2023-06-11T18:42:42.141Z,2.65
2023-06-11T18:45:09.590Z,2.90
2023-06-11T18:47:36.824Z,2.80
2023-06-11T18:50:05.394Z,3.13
2023-06-11T18:52:32.604Z,2.60
2023-06-11T18:54:59.761Z,3.00
2023-06-11T18:57:27.776Z,2.40
2023-06-11T18:59:55.243Z,3.30
2023-06-11T19:02:22.865Z,2.88
2023-06-11T19:04:50.232Z,2.53
2023-06-11T19:07:18.470Z,2.50
2023-06-11T19:09:45.633Z,2.72
2023-06-11T19:12:12.949Z,2.58
2023-06-11T19:14:40.195Z,2.72
2023-06-11T19:17:07.440Z,2.13
2023-06-11T19:19:34.696Z,3.05
2023-06-11T19:22:02.301Z,2.30
2023-06-11T19:24:29.744Z,2.88
2023-06-11T19:26:56.905Z,1.95
2023-06-11T19:29:24.078Z,2.75
2023-06-11T19:31:55.620Z,2.05
2023-06-11T19:34:22.902Z,2.55
2023-06-11T19:36:50.133Z,2.40
2023-06-11T19:39:17.373Z,2.65
2023-06-11T19:41:44.488Z,2.83
2023-06-11T19:44:11.565Z,2.35
2023-06-11T19:46:38.852Z,2.40
2023-06-11T19:49:06.464Z,2.97
2023-06-11T19:51:34.036Z,2.47
2023-06-11T19:54:01.546Z,2.58
2023-06-11T19:56:29.029Z,1.98
2023-06-11T19:58:57.571Z,2.20
2023-06-11T20:01:25.165Z,2.22
2023-06-11T20:03:52.332Z,2.63
2023-06-11T20:06:19.499Z,2.70
2023-06-11T20:08:46.660Z,2.47
2023-06-11T20:11:13.805Z,2.20
2023-06-11T20:13:45.155Z,2.25
2023-06-11T20:16:12.758Z,2.30
2023-06-11T20:18:43.049Z,2.40
2023-06-11T20:21:10.368Z,2.33
2023-06-11T20:23:37.593Z,2.67
2023-06-11T20:26:05.240Z,2.38
2023-06-11T20:28:32.455Z,2.65
2023-06-11T20:31:04.340Z,2.35
2023-06-11T20:33:32.122Z,2.78
2023-06-11T20:35:59.257Z,2.58
2023-06-11T20:38:26.415Z,2.65
2023-06-11T20:40:53.603Z,2.05
2023-06-11T20:43:20.756Z,2.13
2023-06-11T20:45:57.758Z,2.30
2023-06-11T20:48:25.998Z,2.50
2023-06-11T20:50:53.334Z,2.45
2023-06-11T20:53:33.369Z,2.50
2023-06-11T20:56:01.516Z,2.42
2023-06-11T20:58:28.810Z,2.30
2023-06-11T21:00:56.177Z,2.25
2023-06-11T21:03:23.511Z,2.53
2023-06-11T21:05:51.301Z,2.78
2023-06-11T21:08:19.539Z,2.63
2023-06-11T21:10:46.964Z,2.90
2023-06-11T21:13:14.229Z,2.55
2023-06-11T21:15:41.394Z,2.97
2023-06-11T21:18:08.786Z,2.67
2023-06-11T21:20:37.456Z,2.80
2023-06-11T21:23:04.643Z,2.92
2023-06-11T21:25:31.797Z,2.70
2023-06-11T21:27:58.895Z,3.00
2023-06-11T21:30:26.111Z,2.60
2023-06-11T21:32:53.420Z,2.40
2023-06-11T21:35:20.627Z,2.95
2023-06-11T21:37:47.735Z,2.55
2023-06-11T21:40:15.343Z,2.50
2023-06-11T21:42:45.845Z,2.55
2023-06-11T21:45:12.986Z,2.43
2023-06-11T21:47:40.191Z,2.60
2023-06-11T21:50:07.684Z,2.78
2023-06-11T21:52:38.972Z,2.53
2023-06-11T21:55:07.395Z,2.92
2023-06-11T21:57:34.783Z,2.55
2023-06-11T22:00:07.253Z,2.80
2023-06-11T22:02:34.486Z,2.45
2023-06-11T22:05:01.896Z,2.65
2023-06-11T22:07:31.143Z,2.47
2023-06-11T22:09:58.284Z,2.63
2023-06-11T22:12:25.380Z,2.40
2023-06-11T22:14:53.577Z,2.60
2023-06-11T22:17:23.843Z,2.40
2023-06-11T22:19:51.090Z,2.27
2023-06-11T22:22:18.220Z,2.50
2023-06-11T22:24:46.075Z,2.58
2023-06-11T22:27:13.425Z,2.35
2023-06-11T22:29:41.058Z,2.30
2023-06-11T22:32:08.523Z,2.70
2023-06-11T22:34:35.634Z,2.13
2023-06-11T22:37:02.741Z,2.28
2023-06-11T22:39:29.866Z,3.10
2023-06-11T22:41:56.989Z,2.38
2023-06-11T22:44:24.178Z,2.38
2023-06-11T22:46:52.150Z,2.28
2023-06-11T22:49:19.316Z,2.75
2023-06-11T22:51:48.152Z,2.63
2023-06-11T22:54:15.363Z,2.63
2023-06-11T22:56:42.814Z,2.78
2023-06-11T22:59:11.045Z,2.30
2023-06-11T23:01:38.857Z,2.00
2023-06-11T23:04:06.191Z,1.88
2023-06-11T23:06:33.388Z,2.17
2023-06-11T23:09:00.597Z,2.03
2023-06-11T23:11:27.761Z,2.30
2023-06-11T23:13:54.912Z,1.92
2023-06-11T23:16:22.093Z,2.45
2023-06-11T23:18:52.514Z,1.95
2023-06-11T23:21:21.184Z,2.10
2023-06-11T23:23:49.090Z,2.13
2023-06-11T23:26:17.221Z,2.00
2023-06-11T23:28:44.342Z,2.33
2023-06-11T23:31:11.925Z,2.03
2023-06-11T23:33:39.607Z,2.05
2023-06-11T23:36:07.366Z,2.38
2023-06-11T23:38:34.626Z,2.10
2023-06-11T23:41:01.786Z,2.20
2023-06-11T23:43:28.883Z,1.98
2023-06-11T23:45:56.092Z,2.13
2023-06-11T23:48:23.254Z,2.15
2023-06-11T23:50:50.464Z,2.05
2023-06-11T23:53:17.639Z,2.33
2023-06-11T23:55:44.756Z,2.03
2023-06-11T23:58:11.841Z,2.10
